Frostproof, FL (33843)

12:28 PM EDT on September 19, 2014 (GMT -0400)
Family Acres | Change Station
CLOSE
Current Station
Personal Weather Station
Location: Fort Meade, FL
Elevation: 128 ft
Nearby Weather Stations

Elev 128 ft 27.66 °N, 81.59 °W | Updated 13 minutes ago

Overcast
Overcast
84.1 °F
Feels Like 92 °F
N
5.0
Wind Variable Wind from East
Gusts 14.0 mph

Today
High -- | Low -- °F
--% Chance of Precip.
Yesterday
High -- | Low -- °F
Precip. -- in
7:13 AM 7:26 PM
Waning Crescent, 18% visible
Pressure 28.87 in
Visibility 10.0 miles
Clouds Few 2000 ft
Mostly Cloudy 10000 ft
Overcast 20000 ft
Heat Index 92 °F
Dew Point 75 °F
Humidity 75%
Rainfall 0.00 in
Snow Depth Not available.
UV 3.4 out of 12
Pollen 3.90 out of 12
Ozone Good
Flu Activity Not available.
METAR KBOW 191547Z 07005KT 10SM FEW020 BKN100 OVC200 26/23 A2887

More Conditions Fewer Conditions

Pressure 28.87 in
Visibility 10.0 miles
Clouds Few 2000 ft
Mostly Cloudy 10000 ft
Overcast 20000 ft
Heat Index 92 °F
Dew Point 75 °F
Humidity 75%
Rainfall 0.00 in
Snow Depth Not available.
UV 3.4 out of 12
Pollen 3.90 out of 12
Ozone Good
Flu Activity Not available.
METAR KBOW 191547Z 07005KT 10SM FEW020 BKN100 OVC200 26/23 A2887

More Conditions Fewer Conditions

10-Day Weather Forecast

Almanac

Astronomy

Sep. 19, 2014 Rise Set
Actual Time 7:13 AM EDT 7:26 PM EDT
Civil Twilight 6:49 AM EDT 7:49 PM EDT
Nautical Twilight 6:22 AM EDT 8:16 PM EDT
Astronomical Twilight 5:55 AM EDT 8:44 PM EDT
Moon 3:14 AM EDT 4:38 PM EDT
Length of Visible Light 12h 59m
Length of Day
12h 12m
Tomorrow will be 1m 38s shorter.
Waning Crescent, 18% of the Moon is Illuminated
Today
Waning Crescent
Sep 24
New
Oct 1
First Quarter
Oct 8
Full
Oct 15
Last Quarter

Today's Extremes

State Highs State Lows

Community

WunderPhotos

Upload Photos

1,754,648 photos uploaded!

WunderBlogs® & News

By Dr. Jeff Masters
Director of Meteorology, Weather Underground
By Kari Strenfel
Meteorologist, Weather Underground
By Christopher C. Burt
Weather Historian, Weather Underground
September 19, 2014
September 19, 2014
September 19, 2014

Nearby

Air Quality

  Air Quality AQ Index Pollutant
Yesterday Good
OZONE
Yesterday Good
PM10
Current Good
OZONE
Friday Moderate
PM2.5
Friday Good
OZONE

Snow Depth

Station Depth Elevation
No new snow has been reported.

Earthquake Activity

City Distance Mag. Time & Date
No recent earthquake activity has been reported nearby.
Minimum magnitude displayed is 2.5.

Coastal Water Temperatures

Place Temperature
No Stations Reporting

Nearby Weather Stations